createdAt,value
2022-08-05T00:02:33.940Z,49.35
2022-08-05T00:06:38.173Z,49.82
2022-08-05T00:10:41.254Z,50.13
2022-08-05T00:14:44.424Z,50.20
2022-08-05T00:18:50.891Z,50.60
2022-08-05T00:22:55.284Z,50.19
2022-08-05T00:27:10.559Z,50.27
2022-08-05T00:31:53.064Z,49.97
2022-08-05T00:35:48.014Z,50.29
2022-08-05T00:40:06.165Z,50.12
2022-08-05T00:44:12.984Z,50.07
2022-08-05T00:48:17.787Z,50.17
2022-08-05T00:52:32.237Z,50.46
2022-08-05T00:56:51.621Z,50.33
2022-08-05T01:00:55.427Z,50.89
2022-08-05T01:04:58.509Z,51.03
2022-08-05T01:09:03.555Z,51.87
2022-08-05T01:13:22.301Z,51.86
2022-08-05T01:17:40.114Z,51.79
2022-08-05T01:21:58.295Z,51.56
2022-08-05T01:26:20.896Z,51.80
2022-08-05T01:30:35.728Z,52.29
2022-08-05T01:34:44.934Z,52.36
2022-08-05T01:38:51.023Z,52.67
2022-08-05T01:42:55.958Z,52.55
2022-08-05T01:47:05.231Z,53.25
2022-08-05T01:51:12.551Z,53.44
2022-08-05T01:55:19.475Z,53.52
2022-08-05T01:59:24.784Z,53.94
2022-08-05T02:03:34.507Z,54.19
2022-08-05T02:07:38.358Z,54.27
2022-08-05T02:11:48.197Z,54.28
2022-08-05T02:16:01.909Z,54.24
2022-08-05T02:20:23.028Z,54.10
2022-08-05T02:24:33.775Z,54.33
2022-08-05T02:28:46.046Z,53.92
2022-08-05T02:32:52.516Z,53.69
2022-08-05T02:37:00.793Z,53.76
2022-08-05T02:41:17.148Z,53.13
2022-08-05T02:45:24.159Z,53.48
2022-08-05T02:49:36.424Z,53.64
2022-08-05T02:54:05.188Z,53.85
2022-08-05T02:58:20.178Z,54.13
2022-08-05T03:02:27.789Z,53.90
2022-08-05T03:06:53.819Z,54.19
2022-08-05T03:11:53.554Z,53.65
2022-08-05T03:15:21.201Z,53.27
2022-08-05T03:19:34.488Z,53.57
2022-08-05T03:23:42.529Z,54.10
2022-08-05T03:28:00.128Z,54.29
2022-08-05T03:32:04.860Z,55.16
2022-08-05T03:36:12.368Z,55.51
2022-08-05T03:40:31.330Z,55.94
2022-08-05T03:44:36.996Z,56.12
2022-08-05T03:48:41.397Z,56.57
2022-08-05T03:55:06.890Z,56.69
2022-08-05T03:57:41.306Z,57.02
2022-08-05T04:01:50.815Z,57.05
2022-08-05T04:05:56.108Z,56.92
2022-08-05T04:10:02.924Z,56.58
2022-08-05T04:14:07.422Z,56.88
2022-08-05T04:18:22.415Z,56.53
2022-08-05T04:22:28.747Z,56.26
2022-08-05T04:26:32.366Z,56.44
2022-08-05T04:30:35.796Z,55.97
2022-08-05T04:34:42.933Z,55.95
2022-08-05T04:38:46.942Z,55.91
2022-08-05T04:42:55.268Z,56.04
2022-08-05T04:46:58.934Z,56.38
2022-08-05T04:51:11.613Z,56.07
2022-08-05T04:55:15.457Z,56.17
2022-08-05T04:59:36.648Z,56.30
2022-08-05T05:03:42.734Z,56.22
2022-08-05T05:07:52.951Z,56.07
2022-08-05T05:12:02.836Z,56.03
2022-08-05T05:16:07.269Z,55.67
2022-08-05T05:20:12.521Z,55.08
2022-08-05T05:24:17.714Z,55.14
2022-08-05T05:28:21.530Z,54.44
2022-08-05T05:32:24.831Z,54.22
2022-08-05T05:36:29.752Z,54.43
2022-08-05T05:40:35.200Z,53.72
2022-08-05T05:44:44.424Z,53.54
2022-08-05T05:48:49.241Z,52.85
2022-08-05T05:52:52.422Z,52.13
2022-08-05T05:56:57.062Z,52.25
2022-08-05T06:01:02.444Z,51.96
2022-08-05T06:05:20.447Z,51.58
2022-08-05T06:09:35.385Z,51.05
2022-08-05T06:13:50.645Z,51.45
2022-08-05T06:17:57.388Z,50.43
2022-08-05T06:22:00.485Z,50.36
2022-08-05T06:26:20.771Z,49.92
2022-08-05T06:30:27.328Z,49.44
2022-08-05T06:34:31.360Z,49.19
2022-08-05T06:38:36.114Z,48.82
2022-08-05T06:42:40.389Z,48.51
2022-08-05T06:46:45.224Z,48.29
2022-08-05T06:50:49.959Z,48.11
2022-08-05T06:54:53.409Z,47.97
2022-08-05T06:58:57.132Z,46.94
2022-08-05T07:03:02.067Z,46.88
2022-08-05T07:07:07.807Z,46.40
2022-08-05T07:11:15.394Z,46.32
2022-08-05T07:16:00.809Z,45.86
2022-08-05T07:20:33.015Z,46.08
2022-08-05T07:24:28.533Z,45.13
2022-08-05T07:28:31.873Z,44.42
2022-08-05T07:32:36.870Z,44.33
2022-08-05T07:36:41.377Z,44.16
2022-08-05T07:40:45.493Z,43.75
2022-08-05T07:44:58.856Z,43.65
2022-08-05T07:49:07.944Z,43.73
2022-08-05T07:53:13.331Z,42.92
2022-08-05T07:57:41.499Z,43.00
2022-08-05T08:01:39.513Z,43.18
2022-08-05T08:05:55.173Z,42.75
2022-08-05T08:10:01.081Z,42.14
2022-08-05T08:14:05.080Z,42.29
2022-08-05T08:18:14.245Z,41.53
2022-08-05T08:22:17.625Z,41.42
2022-08-05T08:26:29.728Z,41.38
2022-08-05T08:30:40.876Z,41.44
2022-08-05T08:34:51.518Z,41.06
2022-08-05T08:38:56.026Z,40.64
2022-08-05T08:44:57.902Z,40.25
2022-08-05T08:48:06.433Z,40.09
2022-08-05T08:52:03.487Z,39.33
2022-08-05T08:56:09.733Z,39.48
2022-08-05T09:00:16.495Z,38.75
2022-08-05T09:04:23.255Z,38.55
2022-08-05T09:08:33.926Z,39.24
2022-08-05T09:12:37.191Z,38.90
2022-08-05T09:16:42.064Z,38.73
2022-08-05T09:20:52.363Z,38.70
2022-08-05T09:24:59.834Z,38.11
2022-08-05T09:29:05.991Z,37.97
2022-08-05T09:33:15.313Z,38.02
2022-08-05T09:38:17.302Z,37.52
2022-08-05T09:42:07.872Z,37.61
2022-08-05T09:46:28.048Z,36.82
2022-08-05T09:50:45.217Z,37.57
2022-08-05T09:54:57.173Z,36.78
2022-08-05T09:59:01.814Z,36.14
2022-08-05T10:03:11.437Z,36.60
2022-08-05T10:07:20.009Z,36.51
2022-08-05T10:11:24.363Z,35.60
2022-08-05T10:15:36.431Z,36.13
2022-08-05T10:20:04.400Z,35.91
2022-08-05T10:24:09.212Z,36.22
2022-08-05T10:28:19.120Z,36.45
2022-08-05T10:32:53.684Z,36.03
2022-08-05T10:36:47.309Z,35.61
2022-08-05T10:41:02.038Z,35.26
2022-08-05T10:45:20.843Z,35.13
2022-08-05T10:49:33.254Z,35.20
2022-08-05T10:53:45.387Z,35.10
2022-08-05T10:57:51.366Z,34.76
2022-08-05T11:02:24.267Z,34.71
2022-08-05T11:06:33.488Z,34.80
2022-08-05T11:10:37.664Z,34.98
2022-08-05T11:15:19.186Z,34.78
2022-08-05T11:20:16.720Z,34.06
2022-08-05T11:24:04.857Z,34.63
2022-08-05T11:28:46.119Z,34.39
2022-08-05T11:32:51.252Z,33.53
2022-08-05T11:36:56.165Z,33.68
2022-08-05T11:41:15.444Z,33.45
2022-08-05T11:46:14.598Z,33.31
2022-08-05T11:49:55.913Z,33.65
2022-08-05T11:54:00.751Z,33.33
2022-08-05T11:58:10.454Z,33.15
2022-08-05T12:02:30.701Z,33.01
2022-08-05T12:06:37.301Z,32.93
2022-08-05T12:10:52.986Z,32.93
2022-08-05T12:14:57.044Z,32.76
2022-08-05T12:19:00.274Z,32.51
2022-08-05T12:23:13.474Z,32.75
2022-08-05T12:27:25.091Z,32.28
2022-08-05T12:31:42.472Z,32.63
2022-08-05T12:35:49.518Z,31.98
2022-08-05T12:40:03.678Z,31.47
2022-08-05T12:44:28.494Z,31.53
2022-08-05T12:48:39.828Z,31.54
2022-08-05T12:52:43.288Z,31.99
2022-08-05T12:56:51.489Z,32.13
2022-08-05T13:02:01.085Z,31.30
2022-08-05T13:05:18.154Z,31.21
2022-08-05T13:09:27.977Z,31.25
2022-08-05T13:14:04.608Z,32.39
2022-08-05T13:17:59.289Z,32.37
2022-08-05T13:22:02.814Z,31.67
2022-08-05T13:26:07.380Z,32.29
2022-08-05T13:30:33.987Z,32.47
2022-08-05T13:34:37.982Z,31.12
2022-08-05T13:38:43.982Z,31.25
2022-08-05T13:42:55.683Z,30.77
2022-08-05T13:47:02.512Z,29.27
2022-08-05T13:51:13.765Z,29.18
2022-08-05T13:55:41.762Z,28.89
2022-08-05T13:59:57.209Z,29.00
2022-08-05T14:04:22.044Z,28.61
2022-08-05T14:08:32.609Z,28.64
2022-08-05T14:12:36.262Z,28.98
2022-08-05T14:16:39.517Z,28.84
2022-08-05T14:20:47.892Z,29.04
2022-08-05T14:24:51.281Z,29.29
2022-08-05T14:28:54.547Z,29.18
2022-08-05T14:32:58.959Z,29.39
2022-08-05T14:37:03.459Z,29.84
2022-08-05T14:41:08.172Z,28.53
2022-08-05T14:45:12.344Z,28.70
2022-08-05T14:49:15.674Z,29.36
2022-08-05T14:53:20.424Z,29.58
2022-08-05T14:57:25.002Z,29.77
2022-08-05T15:01:49.914Z,30.04
2022-08-05T15:06:13.575Z,29.56
2022-08-05T15:10:17.773Z,29.47
2022-08-05T15:14:34.943Z,29.34
2022-08-05T15:18:47.048Z,29.87
2022-08-05T15:22:54.104Z,30.34
2022-08-05T15:26:59.488Z,30.37
2022-08-05T15:31:03.611Z,30.28
2022-08-05T15:35:12.471Z,30.85
2022-08-05T15:40:58.965Z,30.84
2022-08-05T15:43:46.066Z,30.92
2022-08-05T15:47:50.184Z,31.05
2022-08-05T15:52:10.105Z,31.74
2022-08-05T15:56:17.452Z,31.55
2022-08-05T16:00:29.283Z,31.94
2022-08-05T16:04:45.509Z,31.67
2022-08-05T16:08:51.132Z,32.42
2022-08-05T16:12:56.636Z,33.12
2022-08-05T16:17:01.352Z,32.65
2022-08-05T16:21:04.992Z,32.81
2022-08-05T16:25:09.968Z,33.04
2022-08-05T16:29:13.246Z,33.48
2022-08-05T16:33:19.151Z,34.08
2022-08-05T16:38:15.303Z,34.00
2022-08-05T16:42:14.339Z,33.90
2022-08-05T16:46:23.567Z,33.94
2022-08-05T16:50:29.573Z,34.58
2022-08-05T16:54:34.722Z,35.19
2022-08-05T16:58:39.035Z,34.69
2022-08-05T17:02:42.754Z,34.65
2022-08-05T17:06:53.001Z,34.62
2022-08-05T17:10:57.094Z,35.08
2022-08-05T17:15:00.178Z,34.86
2022-08-05T17:19:03.673Z,35.69
2022-08-05T17:24:03.597Z,36.02
2022-08-05T17:27:35.736Z,35.19
2022-08-05T17:31:56.704Z,36.15
2022-08-05T17:36:08.982Z,35.78
2022-08-05T17:40:17.222Z,36.49
2022-08-05T17:44:26.751Z,36.63
2022-08-05T17:48:35.753Z,36.95
2022-08-05T17:52:52.787Z,37.47
2022-08-05T17:56:59.366Z,37.35
2022-08-05T18:01:02.984Z,37.65
2022-08-05T18:05:13.716Z,38.68
2022-08-05T18:09:20.295Z,38.37
2022-08-05T18:13:25.737Z,37.86
2022-08-05T18:18:01.504Z,38.24
2022-08-05T18:22:09.670Z,38.34
2022-08-05T18:26:14.963Z,37.57
2022-08-05T18:30:23.527Z,38.37
2022-08-05T18:34:35.062Z,38.33
2022-08-05T18:38:44.708Z,38.25
2022-08-05T18:42:47.824Z,39.32
2022-08-05T18:46:52.376Z,39.42
2022-08-05T18:52:05.876Z,39.08
2022-08-05T18:55:36.229Z,39.31
2022-08-05T18:59:43.961Z,39.57
2022-08-05T19:04:05.337Z,39.08
2022-08-05T19:08:12.244Z,39.29
2022-08-05T19:12:17.698Z,40.15
2022-08-05T19:16:25.341Z,40.47
2022-08-05T19:20:33.793Z,40.44
2022-08-05T19:24:38.428Z,40.74
2022-08-05T19:28:57.777Z,40.18
2022-08-05T19:33:01.063Z,41.55
2022-08-05T19:37:10.015Z,41.76
2022-08-05T19:41:13.387Z,41.59
2022-08-05T19:45:17.429Z,42.01
2022-08-05T19:49:21.644Z,42.19
2022-08-05T19:54:04.498Z,42.66
2022-08-05T19:58:06.673Z,42.30
2022-08-05T20:02:12.790Z,42.46
2022-08-05T20:06:29.368Z,42.38
2022-08-05T20:10:34.224Z,43.22
2022-08-05T20:14:40.005Z,43.41
2022-08-05T20:18:43.104Z,43.44
2022-08-05T20:22:48.312Z,44.02
2022-08-05T20:26:53.896Z,43.97
2022-08-05T20:30:58.828Z,44.14
2022-08-05T20:35:02.420Z,44.34
2022-08-05T20:39:05.773Z,44.21
2022-08-05T20:43:10.968Z,44.10
2022-08-05T20:47:14.887Z,44.18
2022-08-05T20:51:18.328Z,44.16
2022-08-05T20:55:56.717Z,44.08
2022-08-05T21:00:21.339Z,43.84
2022-08-05T21:04:10.669Z,43.45
2022-08-05T21:08:13.929Z,43.32
2022-08-05T21:12:19.420Z,43.17
2022-08-05T21:16:29.407Z,43.00
2022-08-05T21:20:34.344Z,42.96
2022-08-05T21:24:37.444Z,43.06
2022-08-05T21:28:50.562Z,43.30
2022-08-05T21:32:55.678Z,42.92
2022-08-05T21:36:58.811Z,43.08
2022-08-05T21:41:01.837Z,43.11
2022-08-05T21:45:10.838Z,43.10
2022-08-05T21:49:58.883Z,43.53
2022-08-05T21:53:39.001Z,43.27
2022-08-05T21:57:42.704Z,43.37
2022-08-05T22:01:46.037Z,43.25
2022-08-05T22:05:50.868Z,43.55
2022-08-05T22:09:54.311Z,44.01
2022-08-05T22:14:19.778Z,44.12
2022-08-05T22:18:25.782Z,44.32
2022-08-05T22:22:31.257Z,44.66
2022-08-05T22:26:51.917Z,44.86
2022-08-05T22:30:55.958Z,44.62
2022-08-05T22:35:00.500Z,44.89
2022-08-05T22:39:09.587Z,44.62
2022-08-05T22:43:13.388Z,44.81
2022-08-05T22:47:29.812Z,44.98
2022-08-05T22:52:06.360Z,44.89
2022-08-05T22:55:59.350Z,44.95
2022-08-05T23:00:03.034Z,44.58
2022-08-05T23:04:06.455Z,44.78
2022-08-05T23:08:12.364Z,44.78
2022-08-05T23:12:20.344Z,44.82
2022-08-05T23:16:44.039Z,44.83
2022-08-05T23:20:47.245Z,44.84
2022-08-05T23:24:52.497Z,45.00
2022-08-05T23:28:57.200Z,45.22
2022-08-05T23:33:01.982Z,45.20
2022-08-05T23:37:07.027Z,45.35
2022-08-05T23:41:14.505Z,45.41
2022-08-05T23:45:18.913Z,45.58
2022-08-05T23:49:33.763Z,45.33
2022-08-05T23:53:46.698Z,45.46
2022-08-05T23:57:51.194Z,45.54
